createdAt,value
2023-01-17T12:25:50.038Z,67.05
2023-01-17T12:26:50.210Z,66.26
2023-01-17T12:27:50.053Z,66.29
2023-01-17T12:28:50.244Z,66.50
2023-01-17T12:29:49.799Z,67.47
2023-01-17T12:30:49.728Z,66.58
2023-01-17T12:31:49.706Z,67.98
2023-01-17T12:32:49.707Z,67.21
2023-01-17T12:33:49.681Z,65.09
2023-01-17T12:34:49.697Z,64.78
2023-01-17T12:35:49.645Z,66.75
2023-01-17T12:36:49.769Z,65.34
2023-01-17T12:38:03.801Z,67.50
2023-01-17T12:38:49.642Z,66.90
2023-01-17T12:39:49.644Z,65.52
2023-01-17T12:40:49.625Z,66.63
2023-01-17T12:41:49.616Z,66.06
2023-01-17T12:42:49.561Z,65.82
2023-01-17T12:43:49.572Z,64.69
2023-01-17T12:44:49.582Z,65.79
2023-01-17T12:45:49.531Z,66.94
2023-01-17T12:46:49.589Z,67.37
2023-01-17T12:47:49.498Z,65.28
2023-01-17T12:48:49.534Z,67.20
2023-01-17T12:49:49.520Z,67.30
2023-01-17T12:50:49.502Z,67.78
2023-01-17T12:51:49.497Z,67.32
2023-01-17T12:52:49.528Z,66.52
2023-01-17T12:53:49.451Z,65.34
2023-01-17T12:54:49.484Z,65.32
2023-01-17T12:55:49.469Z,65.67
2023-01-17T12:56:49.492Z,65.49
2023-01-17T12:57:49.423Z,66.03
2023-01-17T12:58:49.373Z,65.74
2023-01-17T12:59:49.415Z,66.57
2023-01-17T13:00:49.470Z,66.92
2023-01-17T13:01:49.455Z,66.50
2023-01-17T13:02:49.387Z,66.48
2023-01-17T13:03:49.520Z,66.68
2023-01-17T13:04:58.395Z,67.45
2023-01-17T13:05:49.285Z,69.44
2023-01-17T13:06:49.315Z,68.19
2023-01-17T13:07:49.264Z,64.79
2023-01-17T13:08:49.253Z,63.67
2023-01-17T13:09:50.144Z,65.79
2023-01-17T13:10:49.227Z,66.12
2023-01-17T13:11:49.211Z,67.01
2023-01-17T13:12:49.237Z,64.95
2023-01-17T13:13:49.190Z,63.93
2023-01-17T13:14:49.185Z,64.66
2023-01-17T13:15:49.270Z,63.58
2023-01-17T13:16:49.154Z,63.69
2023-01-17T13:17:49.186Z,65.08
2023-01-17T13:18:49.148Z,63.76
2023-01-17T13:19:49.119Z,63.00
2023-01-17T13:20:49.116Z,64.88
2023-01-17T13:21:49.105Z,63.35
2023-01-17T13:22:50.770Z,62.26
2023-01-17T13:23:49.069Z,62.71
2023-01-17T13:24:49.063Z,62.41
2023-01-17T13:25:49.077Z,64.62
2023-01-17T13:26:49.053Z,64.81
2023-01-17T13:27:49.028Z,64.13
2023-01-17T13:28:49.030Z,62.79
2023-01-17T13:29:49.007Z,64.37
2023-01-17T13:30:49.065Z,64.07
2023-01-17T13:31:49.004Z,64.74
2023-01-17T13:32:48.958Z,62.65
2023-01-17T13:33:48.975Z,64.10
2023-01-17T13:34:48.944Z,65.26
2023-01-17T13:35:48.951Z,66.90
2023-01-17T13:36:48.990Z,65.91
2023-01-17T13:37:48.893Z,64.77
2023-01-17T13:38:48.904Z,67.54
2023-01-17T13:39:48.887Z,65.46
2023-01-17T13:40:48.863Z,64.23
2023-01-17T13:41:48.840Z,65.44
2023-01-17T13:42:48.888Z,66.88
2023-01-17T13:43:48.915Z,65.56
2023-01-17T13:44:48.901Z,66.31
2023-01-17T13:45:48.812Z,65.77
2023-01-17T13:46:49.094Z,63.68
2023-01-17T13:47:48.838Z,65.53
2023-01-17T13:48:48.767Z,67.43
2023-01-17T13:49:48.829Z,67.21
2023-01-17T13:50:48.754Z,66.38
2023-01-17T13:51:48.730Z,64.52
2023-01-17T13:52:48.723Z,67.14
2023-01-17T13:53:48.718Z,65.91
2023-01-17T13:54:48.770Z,67.43
2023-01-17T13:55:48.783Z,65.53
2023-01-17T13:56:48.860Z,66.62
2023-01-17T13:57:48.684Z,65.12
2023-01-17T13:58:50.765Z,66.42
2023-01-17T13:59:49.768Z,65.90
2023-01-17T14:00:50.946Z,67.12
2023-01-17T14:01:49.918Z,65.09
2023-01-17T14:02:53.703Z,64.93
2023-01-17T14:03:49.736Z,65.42
2023-01-17T14:04:49.894Z,66.65
2023-01-17T14:05:49.725Z,67.17
2023-01-17T14:06:49.702Z,64.87
2023-01-17T14:07:49.699Z,66.06
2023-01-17T14:08:49.715Z,66.15
2023-01-17T14:09:50.172Z,67.23
2023-01-17T14:10:49.732Z,66.18
2023-01-17T14:11:49.680Z,66.03
2023-01-17T14:12:49.601Z,66.50
2023-01-17T14:13:49.610Z,66.94
2023-01-17T14:14:49.612Z,65.62
2023-01-17T14:15:49.616Z,65.81
2023-01-17T14:16:49.605Z,67.20
2023-01-17T14:17:49.575Z,66.74
2023-01-17T14:18:49.771Z,66.21
2023-01-17T14:19:49.527Z,66.74
2023-01-17T14:20:49.546Z,65.39
2023-01-17T14:21:49.548Z,66.34
2023-01-17T14:22:49.712Z,66.70
2023-01-17T14:23:50.270Z,66.14
2023-01-17T14:24:50.290Z,65.18
2023-01-17T14:25:49.478Z,65.38
2023-01-17T14:26:49.488Z,66.64
2023-01-17T14:27:49.513Z,66.95
2023-01-17T14:28:50.099Z,65.41
2023-01-17T14:29:49.465Z,65.17
2023-01-17T14:30:49.443Z,66.37
2023-01-17T14:31:49.504Z,67.23
2023-01-17T14:32:49.408Z,63.70
2023-01-17T14:33:49.384Z,67.90
2023-01-17T14:34:49.360Z,66.00
2023-01-17T14:35:49.369Z,65.46
2023-01-17T14:36:49.357Z,65.18
2023-01-17T14:37:49.337Z,64.96
2023-01-17T14:38:49.322Z,67.04
2023-01-17T14:39:49.326Z,65.82
2023-01-17T14:40:49.306Z,66.18
2023-01-17T14:41:49.331Z,66.44
2023-01-17T14:42:49.258Z,65.59
2023-01-17T14:43:49.274Z,64.99
2023-01-17T14:44:49.213Z,66.40
2023-01-17T14:45:49.260Z,65.78
2023-01-17T14:46:49.244Z,65.55
2023-01-17T14:47:49.214Z,65.80
2023-01-17T14:48:49.242Z,64.90
2023-01-17T14:49:49.182Z,64.55
2023-01-17T14:50:49.245Z,65.02
2023-01-17T14:51:49.175Z,65.43
2023-01-17T14:52:49.166Z,64.85
2023-01-17T14:53:49.154Z,65.83
2023-01-17T14:54:49.146Z,66.30
2023-01-17T14:55:49.154Z,65.59
2023-01-17T14:56:49.102Z,64.44
2023-01-17T14:57:49.095Z,65.28
2023-01-17T14:58:49.060Z,65.44
2023-01-17T14:59:49.092Z,65.12
2023-01-17T15:00:49.166Z,67.10
2023-01-17T15:02:05.761Z,66.66
2023-01-17T15:02:50.222Z,64.94
2023-01-17T15:03:49.065Z,66.14
2023-01-17T15:04:49.021Z,65.78
2023-01-17T15:05:48.993Z,64.44
2023-01-17T15:06:49.010Z,64.09
2023-01-17T15:07:48.959Z,66.36
2023-01-17T15:08:48.974Z,65.80
2023-01-17T15:09:48.955Z,65.69
2023-01-17T15:10:48.934Z,65.19
2023-01-17T15:11:49.039Z,65.73
2023-01-17T15:12:48.923Z,66.49
2023-01-17T15:13:48.929Z,66.27
2023-01-17T15:14:48.875Z,67.11
2023-01-17T15:15:48.921Z,65.35
2023-01-17T15:16:48.916Z,67.51
2023-01-17T15:17:48.892Z,65.45
2023-01-17T15:18:48.881Z,67.34
2023-01-17T15:19:48.816Z,66.51
2023-01-17T15:20:48.828Z,65.31
2023-01-17T15:21:48.802Z,66.36
2023-01-17T15:22:48.834Z,67.14
2023-01-17T15:23:48.788Z,67.29
2023-01-17T15:24:48.800Z,66.90
2023-01-17T15:25:48.761Z,67.54
2023-01-17T15:26:48.737Z,68.05
2023-01-17T15:27:48.810Z,67.82
2023-01-17T15:28:48.705Z,68.08
2023-01-17T15:29:48.757Z,67.91
2023-01-17T15:30:51.344Z,69.18
2023-01-17T15:31:48.824Z,69.10
2023-01-17T15:32:48.677Z,67.02
2023-01-17T15:33:48.741Z,68.53
2023-01-17T15:34:48.723Z,69.20
2023-01-17T15:35:49.952Z,69.47
2023-01-17T15:40:41.682Z,68.04
2023-01-17T15:41:40.332Z,65.68
2023-01-17T15:42:40.284Z,67.24
2023-01-17T15:43:40.393Z,67.69
2023-01-17T15:44:48.050Z,68.90
2023-01-17T15:45:40.287Z,68.13
2023-01-17T15:46:40.241Z,68.72
2023-01-17T15:47:40.268Z,67.02
2023-01-17T15:48:40.256Z,68.54
2023-01-17T15:49:40.282Z,68.99
2023-01-17T15:50:40.269Z,68.55
2023-01-17T15:51:40.270Z,69.63
2023-01-17T15:52:40.192Z,68.89
2023-01-17T15:53:40.398Z,70.14
2023-01-17T15:54:40.230Z,69.41
2023-01-17T15:55:41.007Z,69.73
2023-01-17T15:56:40.130Z,68.77
2023-01-17T15:57:40.420Z,69.75
2023-01-17T15:58:40.160Z,70.04
2023-01-17T15:59:40.223Z,70.01
2023-01-17T16:00:40.139Z,69.25
2023-01-17T16:01:40.287Z,68.75
2023-01-17T16:02:42.607Z,70.23
2023-01-17T16:03:40.116Z,70.29
